createdAt,value
2019-05-11T00:00:49.462Z,98637.88
2019-05-11T00:03:23.563Z,98644.55
2019-05-11T00:06:05.880Z,98645.67
2019-05-11T00:08:39.910Z,98637.08
2019-05-11T00:11:16.210Z,98647.33
2019-05-11T00:13:51.006Z,98642.38
2019-05-11T00:16:31.893Z,98639.13
2019-05-11T00:19:15.519Z,98643.52
2019-05-11T00:21:50.145Z,98641.25
2019-05-11T00:24:24.473Z,98638.02
2019-05-11T00:26:58.558Z,98643.25
2019-05-11T00:29:32.927Z,98643.31
2019-05-11T00:32:09.589Z,98639.50
2019-05-11T00:34:44.137Z,98648.56
2019-05-11T00:37:19.624Z,98645.75
2019-05-11T00:39:55.374Z,98646.77
2019-05-11T00:42:32.526Z,98647.05
2019-05-11T00:45:09.463Z,98643.64
2019-05-11T00:47:44.493Z,98655.70
2019-05-11T00:50:20.225Z,98652.77
2019-05-11T00:52:54.866Z,98646.45
2019-05-11T00:55:29.070Z,98647.47
2019-05-11T00:58:03.394Z,98642.36
2019-05-11T01:00:48.357Z,98643.21
2019-05-11T01:03:34.864Z,98643.48
2019-05-11T01:06:13.776Z,98641.61
2019-05-11T01:08:49.952Z,98644.83
2019-05-11T01:11:33.374Z,98647.83
2019-05-11T01:14:09.531Z,98646.50
2019-05-11T01:16:45.318Z,98645.56
2019-05-11T01:19:19.613Z,98640.39
2019-05-11T01:21:59.992Z,98645.06
2019-05-11T01:24:46.196Z,98641.33
2019-05-11T01:27:31.494Z,98641.33
2019-05-11T01:30:12.185Z,98649.53
2019-05-11T01:32:52.697Z,98645.73
2019-05-11T01:35:28.631Z,98647.18
2019-05-11T01:38:10.318Z,98651.96
2019-05-11T01:40:59.077Z,98646.81
2019-05-11T01:43:32.372Z,98652.59
2019-05-11T01:46:09.450Z,98641.22
2019-05-11T01:48:42.712Z,98651.20
2019-05-11T01:51:17.868Z,98655.23
2019-05-11T01:53:53.182Z,98645.65
2019-05-11T01:56:27.659Z,98652.25
2019-05-11T01:59:03.165Z,98653.05
2019-05-11T02:01:42.310Z,98652.61
2019-05-11T02:04:23.508Z,98651.02
2019-05-11T02:07:04.703Z,98647.82
2019-05-11T02:09:40.241Z,98657.19
2019-05-11T02:12:15.504Z,98652.61
2019-05-11T02:14:49.608Z,98651.98
2019-05-11T02:17:25.699Z,98650.53
2019-05-11T02:20:01.751Z,98649.88
2019-05-11T02:22:36.643Z,98647.81
2019-05-11T02:25:12.102Z,98647.42
2019-05-11T02:27:46.264Z,98644.78
2019-05-11T02:30:26.153Z,98643.34
2019-05-11T02:33:03.974Z,98638.38
2019-05-11T02:35:40.736Z,98639.94
2019-05-11T02:38:15.934Z,98644.34
2019-05-11T02:40:56.407Z,98636.77
2019-05-11T02:43:32.561Z,98651.16
2019-05-11T02:46:10.540Z,98637.73
2019-05-11T02:48:49.747Z,98638.09
2019-05-11T02:51:24.373Z,98650.99
2019-05-11T02:53:59.902Z,98645.94
2019-05-11T02:56:34.149Z,98640.81
2019-05-11T02:59:11.120Z,98645.58
2019-05-11T03:01:46.427Z,98634.72
2019-05-11T03:04:35.114Z,98646.38
2019-05-11T03:07:10.723Z,98641.28
2019-05-11T03:09:46.706Z,98639.22
2019-05-11T03:12:40.893Z,98639.83
2019-05-11T03:15:16.708Z,98637.73
2019-05-11T03:17:52.119Z,98638.17
2019-05-11T03:20:33.904Z,98639.24
2019-05-11T03:23:09.106Z,98623.14
2019-05-11T03:25:45.481Z,98621.63
2019-05-11T03:28:20.484Z,98626.89
2019-05-11T03:30:54.331Z,98627.64
2019-05-11T03:33:34.599Z,98624.11
2019-05-11T03:36:10.137Z,98620.67
2019-05-11T03:38:44.905Z,98622.16
2019-05-11T03:41:28.004Z,98609.70
2019-05-11T03:44:21.720Z,98617.17
2019-05-11T03:46:55.911Z,98605.90
2019-05-11T03:49:36.659Z,98611.16
2019-05-11T03:52:11.335Z,98607.91
2019-05-11T03:54:49.998Z,98605.65
2019-05-11T03:57:25.955Z,98604.32
2019-05-11T04:00:05.188Z,98606.20
2019-05-11T04:02:39.720Z,98609.34
2019-05-11T04:05:17.553Z,98604.19
2019-05-11T04:07:56.656Z,98603.64
2019-05-11T04:10:32.408Z,98596.21
2019-05-11T04:13:11.026Z,98603.63
2019-05-11T04:15:48.126Z,98601.57
2019-05-11T04:18:23.118Z,98603.91
2019-05-11T04:20:58.151Z,98597.89
2019-05-11T04:23:34.205Z,98594.05
2019-05-11T04:26:08.740Z,98590.55
2019-05-11T04:28:52.493Z,98594.84
2019-05-11T04:31:31.541Z,98591.40
2019-05-11T04:34:10.770Z,98585.27
2019-05-11T04:36:48.410Z,98593.79
2019-05-11T04:39:23.739Z,98580.06
2019-05-11T04:41:58.925Z,98578.05
2019-05-11T04:44:45.662Z,98576.66
2019-05-11T04:47:19.516Z,98580.06
2019-05-11T04:49:57.883Z,98580.59
2019-05-11T04:52:32.806Z,98584.13
2019-05-11T04:55:07.969Z,98587.50
2019-05-11T04:57:44.318Z,98575.70
2019-05-11T05:00:20.480Z,98575.09
2019-05-11T05:03:00.979Z,98571.32
2019-05-11T05:05:36.826Z,98572.53
2019-05-11T05:08:13.140Z,98567.41
2019-05-11T05:10:58.744Z,98549.16
2019-05-11T05:13:33.676Z,98558.96
2019-05-11T05:16:07.999Z,98548.54
2019-05-11T05:18:52.289Z,98554.61
2019-05-11T05:21:33.023Z,98557.70
2019-05-11T05:24:07.045Z,98551.55
2019-05-11T05:26:45.615Z,98541.36
2019-05-11T05:29:32.787Z,98549.11
2019-05-11T05:32:07.762Z,98531.64
2019-05-11T05:34:46.034Z,98532.89
2019-05-11T05:37:25.047Z,98532.95
2019-05-11T05:40:16.356Z,98526.61
2019-05-11T05:42:54.977Z,98519.31
2019-05-11T05:45:33.382Z,98519.31
2019-05-11T05:48:10.581Z,98506.03
2019-05-11T05:50:44.591Z,98505.76
2019-05-11T05:53:19.718Z,98513.78
2019-05-11T05:55:59.923Z,98518.52
2019-05-11T05:58:37.617Z,98494.22
2019-05-11T06:01:16.222Z,98495.98
2019-05-11T06:03:52.591Z,98495.30
2019-05-11T06:06:27.519Z,98487.44
2019-05-11T06:09:01.415Z,98492.48
2019-05-11T06:11:35.061Z,98486.82
2019-05-11T06:14:10.350Z,98508.23
2019-05-11T06:16:45.493Z,98482.42
2019-05-11T06:19:20.445Z,98477.91
2019-05-11T06:21:59.862Z,98473.52
2019-05-11T06:24:39.653Z,98461.37
2019-05-11T06:27:14.376Z,98469.37
2019-05-11T06:29:50.143Z,98457.38
2019-05-11T06:32:23.878Z,98460.02
2019-05-11T06:35:02.759Z,98470.52
2019-05-11T06:37:37.644Z,98452.64
2019-05-11T06:40:14.222Z,98452.11
2019-05-11T06:42:51.863Z,98449.73
2019-05-11T06:45:26.625Z,98449.89
2019-05-11T06:48:00.672Z,98448.23
2019-05-11T06:50:47.752Z,98446.31
2019-05-11T06:53:33.257Z,98439.09
2019-05-11T06:56:09.135Z,98437.39
2019-05-11T06:58:45.450Z,98434.12
2019-05-11T07:01:18.988Z,98426.90
2019-05-11T07:03:55.884Z,98439.05
2019-05-11T07:06:31.237Z,98429.09
2019-05-11T07:09:08.416Z,98434.31
2019-05-11T07:11:44.823Z,98426.20
2019-05-11T07:14:22.847Z,98424.50
2019-05-11T07:17:00.154Z,98425.30
2019-05-11T07:19:36.489Z,98426.42
2019-05-11T07:22:14.324Z,98430.05
2019-05-11T07:24:53.371Z,98414.54
2019-05-11T07:27:31.493Z,98417.45
2019-05-11T07:30:06.182Z,98415.70
2019-05-11T07:32:39.799Z,98418.87
2019-05-11T07:35:13.632Z,98416.13
2019-05-11T07:37:49.383Z,98414.64
2019-05-11T07:40:23.973Z,98409.00
2019-05-11T07:43:06.127Z,98403.72
2019-05-11T07:45:41.942Z,98391.96
2019-05-11T07:48:15.876Z,98389.44
2019-05-11T07:50:49.504Z,98393.84
2019-05-11T07:53:28.310Z,98392.00
2019-05-11T07:56:05.092Z,98391.38
2019-05-11T07:58:39.828Z,98386.07
2019-05-11T08:01:18.856Z,98398.58
2019-05-11T08:04:02.144Z,98390.73
2019-05-11T08:06:38.923Z,98383.17
2019-05-11T08:09:11.944Z,98388.74
2019-05-11T08:11:58.234Z,98382.30
2019-05-11T08:14:31.772Z,98392.61
2019-05-11T08:17:09.533Z,98385.81
2019-05-11T08:19:44.635Z,98385.81
2019-05-11T08:22:22.168Z,98384.42
2019-05-11T08:24:54.333Z,98383.97
2019-05-11T08:27:31.882Z,98392.25
2019-05-11T08:30:19.380Z,98394.73
2019-05-11T08:32:54.030Z,98385.89
2019-05-11T08:35:31.636Z,98383.24
2019-05-11T08:38:08.646Z,98393.61
2019-05-11T08:40:48.703Z,98373.59
2019-05-11T08:43:25.147Z,98376.14
2019-05-11T08:46:02.337Z,98372.36
2019-05-11T08:48:38.965Z,98373.53
2019-05-11T08:54:12.324Z,98371.66
2019-05-11T08:56:48.680Z,98373.86
2019-05-11T08:59:28.043Z,98377.22
2019-05-11T09:02:08.859Z,98374.53
2019-05-11T09:04:48.403Z,98369.64
2019-05-11T09:07:23.883Z,98368.63
2019-05-11T09:10:00.719Z,98366.44
2019-05-11T09:12:42.009Z,98376.36
2019-05-11T09:15:32.445Z,98376.77
2019-05-11T09:18:01.941Z,98372.51
2019-05-11T09:20:43.071Z,98378.06
2019-05-11T09:23:33.652Z,98370.70
2019-05-11T09:26:05.690Z,98374.89
2019-05-11T09:28:43.516Z,98376.53
2019-05-11T09:31:30.100Z,98385.08
2019-05-11T09:34:09.937Z,98378.77
2019-05-11T09:36:47.819Z,98378.09
2019-05-11T09:39:31.288Z,98376.57
2019-05-11T09:42:17.785Z,98382.98
2019-05-11T09:44:53.013Z,98388.27
2019-05-11T09:47:33.353Z,98386.15
2019-05-11T09:50:11.323Z,98384.31
2019-05-11T09:52:54.427Z,98387.43
2019-05-11T09:55:29.835Z,98390.66
2019-05-11T09:58:08.460Z,98394.11
2019-05-11T10:00:55.330Z,98389.55
2019-05-11T10:03:30.213Z,98393.95
2019-05-11T10:06:10.908Z,98392.03
2019-05-11T10:11:40.921Z,98392.70
2019-05-11T10:17:11.586Z,98394.50
2019-05-11T10:19:50.054Z,98403.17
2019-05-11T10:22:29.647Z,98397.89
2019-05-11T10:25:08.971Z,98399.80
2019-05-11T10:27:57.758Z,98398.52
2019-05-11T10:30:34.989Z,98398.52
2019-05-11T10:33:18.824Z,98404.41
2019-05-11T10:35:53.534Z,98402.41
2019-05-11T10:38:29.244Z,98405.52
2019-05-11T10:41:04.721Z,98401.95
2019-05-11T10:43:39.561Z,98407.81
2019-05-11T10:46:23.752Z,98411.19
2019-05-11T10:48:59.103Z,98407.88
2019-05-11T10:51:49.208Z,98405.12
2019-05-11T10:54:40.728Z,98408.78
2019-05-11T10:57:19.108Z,98412.67
2019-05-11T10:59:54.932Z,98404.98
2019-05-11T11:02:31.759Z,98413.58
2019-05-11T11:05:12.437Z,98412.19
2019-05-11T11:07:48.202Z,98417.45
2019-05-11T11:10:24.072Z,98417.82
2019-05-11T11:13:08.605Z,98421.89
2019-05-11T11:15:48.653Z,98430.72
2019-05-11T11:18:24.519Z,98429.16
2019-05-11T11:21:01.563Z,98430.02
2019-05-11T11:23:38.366Z,98429.04
2019-05-11T11:26:19.761Z,98430.48
2019-05-11T11:29:01.579Z,98444.25
2019-05-11T11:31:47.965Z,98446.68
2019-05-11T11:34:23.799Z,98447.91
2019-05-11T11:37:09.386Z,98458.09
2019-05-11T11:39:44.805Z,98459.51
2019-05-11T11:42:24.009Z,98468.08
2019-05-11T11:45:01.768Z,98463.50
2019-05-11T11:47:39.470Z,98469.09
2019-05-11T11:50:17.974Z,98468.45
2019-05-11T11:52:52.599Z,98477.02
2019-05-11T11:55:28.993Z,98473.22
2019-05-11T11:58:03.448Z,98478.61
2019-05-11T12:00:39.375Z,98475.19
2019-05-11T12:03:24.953Z,98477.19
2019-05-11T12:06:08.749Z,98481.18
2019-05-11T12:08:43.298Z,98483.13
2019-05-11T12:11:19.738Z,98487.80
2019-05-11T12:13:53.799Z,98492.23
2019-05-11T12:16:29.129Z,98505.52
2019-05-11T12:19:05.284Z,98511.23
2019-05-11T12:21:40.109Z,98518.04
2019-05-11T12:24:24.839Z,98523.91
2019-05-11T12:27:01.172Z,98525.10
2019-05-11T12:29:35.332Z,98540.34
2019-05-11T12:32:14.186Z,98559.05
2019-05-11T12:34:49.672Z,98562.58
2019-05-11T12:37:24.459Z,98566.47
2019-05-11T12:40:03.864Z,98560.48
2019-05-11T12:42:43.366Z,98564.88
2019-05-11T12:45:26.928Z,98571.41
2019-05-11T12:48:01.121Z,98574.84
2019-05-11T12:50:38.299Z,98573.31
2019-05-11T12:53:28.470Z,98572.70
2019-05-11T12:56:04.289Z,98573.45
2019-05-11T12:58:39.854Z,98573.79
2019-05-11T13:01:19.037Z,98582.08
2019-05-11T13:03:57.919Z,98583.87
2019-05-11T13:06:32.715Z,98582.62
2019-05-11T13:09:11.315Z,98596.77
2019-05-11T13:11:45.544Z,98603.69
2019-05-11T13:14:20.680Z,98602.61
2019-05-11T13:17:03.474Z,98606.12
2019-05-11T13:19:45.438Z,98600.47
2019-05-11T13:22:22.452Z,98600.63
2019-05-11T13:25:01.279Z,98597.08
2019-05-11T13:27:43.810Z,98600.91
2019-05-11T13:30:18.383Z,98604.00
2019-05-11T13:33:00.082Z,98610.53
2019-05-11T13:35:37.539Z,98626.27
2019-05-11T13:38:23.880Z,98628.11
2019-05-11T13:43:54.802Z,98634.10
2019-05-11T13:46:28.777Z,98645.63
2019-05-11T13:49:05.578Z,98649.16
2019-05-11T13:51:41.218Z,98646.32
2019-05-11T13:54:18.391Z,98648.58
2019-05-11T13:56:54.652Z,98654.70
2019-05-11T13:59:32.832Z,98654.38
2019-05-11T14:02:10.817Z,98657.42
2019-05-11T14:04:44.368Z,98666.15
2019-05-11T14:07:19.845Z,98659.05
2019-05-11T14:09:58.916Z,98653.93
2019-05-11T14:12:33.811Z,98657.77
2019-05-11T14:15:09.415Z,98664.06
2019-05-11T14:17:44.260Z,98657.63
2019-05-11T14:20:29.124Z,98651.66
2019-05-11T14:23:07.725Z,98649.39
2019-05-11T14:25:40.856Z,98646.31
2019-05-11T14:28:19.007Z,98654.55
2019-05-11T14:30:57.891Z,98653.38
2019-05-11T14:33:33.192Z,98659.14
2019-05-11T14:36:08.642Z,98659.37
2019-05-11T14:38:42.118Z,98661.94
2019-05-11T14:41:17.952Z,98662.45
2019-05-11T14:43:51.476Z,98661.70
2019-05-11T14:46:27.933Z,98662.36
2019-05-11T14:49:01.898Z,98665.10
2019-05-11T14:51:35.709Z,98664.83
2019-05-11T14:54:12.542Z,98667.80
2019-05-11T14:57:03.147Z,98675.20
2019-05-11T14:59:37.733Z,98674.45
2019-05-11T15:02:12.089Z,98670.23
2019-05-11T15:04:45.656Z,98667.98
2019-05-11T15:07:21.735Z,98678.84
2019-05-11T15:09:55.741Z,98674.70
2019-05-11T15:12:32.384Z,98667.32
2019-05-11T15:15:13.688Z,98674.54
2019-05-11T15:17:49.379Z,98672.34
2019-05-11T15:20:28.542Z,98670.39
2019-05-11T15:23:04.155Z,98675.55
2019-05-11T15:25:38.771Z,98669.29
2019-05-11T15:28:13.568Z,98667.23
2019-05-11T15:30:48.298Z,98667.09
2019-05-11T15:33:23.062Z,98669.16
2019-05-11T15:35:58.403Z,98669.14
2019-05-11T15:38:34.753Z,98666.66
2019-05-11T15:41:11.090Z,98663.80
2019-05-11T15:43:47.735Z,98658.70
2019-05-11T15:46:21.333Z,98667.55
2019-05-11T15:49:03.104Z,98667.77
2019-05-11T15:51:38.296Z,98673.09
2019-05-11T15:57:01.590Z,98673.96
2019-05-11T15:59:38.715Z,98674.17
2019-05-11T16:02:12.195Z,98675.92
2019-05-11T16:04:49.306Z,98672.64
2019-05-11T16:07:24.942Z,98678.53
2019-05-11T16:10:00.861Z,98675.53
2019-05-11T16:12:34.539Z,98674.30
2019-05-11T16:15:10.282Z,98675.70
2019-05-11T16:17:44.003Z,98675.67
2019-05-11T16:20:18.702Z,98673.45
2019-05-11T16:22:52.906Z,98673.80
2019-05-11T16:25:28.069Z,98669.81
2019-05-11T16:28:02.199Z,98678.26
2019-05-11T16:30:37.851Z,98672.02
2019-05-11T16:33:11.267Z,98679.30
2019-05-11T16:35:46.238Z,98678.24
2019-05-11T16:38:20.028Z,98684.77
2019-05-11T16:40:53.883Z,98683.56
2019-05-11T16:43:28.185Z,98696.50
2019-05-11T16:46:01.842Z,98695.48
2019-05-11T16:48:38.746Z,98697.61
2019-05-11T16:51:12.860Z,98691.98
2019-05-11T16:53:49.348Z,98702.34
2019-05-11T16:56:23.012Z,98696.45
2019-05-11T16:58:58.770Z,98697.83
2019-05-11T17:01:32.356Z,98693.47
2019-05-11T17:04:06.615Z,98691.41
2019-05-11T17:06:40.454Z,98692.48
2019-05-11T17:09:14.227Z,98692.01
2019-05-11T17:11:48.956Z,98689.19
2019-05-11T17:14:22.896Z,98687.42
2019-05-11T17:16:58.597Z,98685.97
2019-05-11T17:19:42.958Z,98679.04
2019-05-11T17:22:08.305Z,98678.51
2019-05-11T17:24:42.345Z,98686.31
2019-05-11T17:27:18.366Z,98685.23
2019-05-11T17:29:52.674Z,98687.67
2019-05-11T17:32:26.355Z,98687.52
2019-05-11T17:35:01.512Z,98684.40
2019-05-11T17:37:35.025Z,98690.02
2019-05-11T17:40:09.859Z,98691.78
2019-05-11T17:42:44.211Z,98685.08
2019-05-11T17:45:18.868Z,98689.25
2019-05-11T17:47:52.868Z,98684.44
2019-05-11T17:50:28.446Z,98688.86
2019-05-11T17:53:02.608Z,98678.84
2019-05-11T17:55:38.245Z,98683.56
2019-05-11T17:58:12.439Z,98680.58
2019-05-11T18:00:48.039Z,98688.53
2019-05-11T18:03:21.783Z,98690.45
2019-05-11T18:05:55.535Z,98694.65
2019-05-11T18:08:30.872Z,98698.98
2019-05-11T18:11:04.524Z,98703.11
2019-05-11T18:13:39.101Z,98702.19
2019-05-11T18:16:12.727Z,98697.48
2019-05-11T18:18:48.306Z,98698.17
2019-05-11T18:21:21.397Z,98693.76
2019-05-11T18:23:55.440Z,98699.15
2019-05-11T18:26:29.106Z,98698.88
2019-05-11T18:29:03.013Z,98700.22
2019-05-11T18:31:38.436Z,98693.11
2019-05-11T18:34:12.778Z,98696.45
2019-05-11T18:36:48.419Z,98697.23
2019-05-11T18:39:21.364Z,98693.00
2019-05-11T18:41:55.099Z,98697.15
2019-05-11T18:44:28.966Z,98687.72
2019-05-11T18:47:04.065Z,98684.61
2019-05-11T18:49:39.002Z,98687.52
2019-05-11T18:52:14.853Z,98689.45
2019-05-11T18:54:49.382Z,98683.83
2019-05-11T18:57:23.754Z,98685.21
2019-05-11T18:59:58.720Z,98685.00
2019-05-11T19:02:33.880Z,98682.22
2019-05-11T19:05:10.243Z,98682.81
2019-05-11T19:07:43.886Z,98683.97
2019-05-11T19:10:19.113Z,98683.89
2019-05-11T19:12:52.891Z,98681.94
2019-05-11T19:15:27.210Z,98687.36
2019-05-11T19:18:02.223Z,98685.59
2019-05-11T19:20:45.142Z,98693.78
2019-05-11T19:23:11.035Z,98689.75
2019-05-11T19:25:44.636Z,98693.91
2019-05-11T19:28:18.640Z,98698.05
2019-05-11T19:30:52.406Z,98695.75
2019-05-11T19:33:27.737Z,98699.64
2019-05-11T19:36:01.230Z,98698.42
2019-05-11T19:38:38.232Z,98702.80
2019-05-11T19:41:13.360Z,98704.98
2019-05-11T19:43:48.636Z,98704.08
2019-05-11T19:46:22.627Z,98702.93
2019-05-11T19:48:57.969Z,98702.93
2019-05-11T19:51:31.576Z,98706.73
2019-05-11T19:54:05.356Z,98705.80
2019-05-11T19:56:38.911Z,98704.91
2019-05-11T19:59:14.794Z,98708.58
2019-05-11T20:01:50.073Z,98708.70
2019-05-11T20:04:23.751Z,98712.28
2019-05-11T20:06:58.210Z,98707.44
2019-05-11T20:09:32.286Z,98706.53
2019-05-11T20:12:05.960Z,98703.77
2019-05-11T20:14:40.228Z,98701.69
2019-05-11T20:17:14.003Z,98711.49
2019-05-11T20:19:49.202Z,98705.84
2019-05-11T20:22:22.855Z,98703.55
2019-05-11T20:24:58.047Z,98707.08
2019-05-11T20:27:31.363Z,98712.03
2019-05-11T20:30:05.859Z,98709.30
2019-05-11T20:32:39.464Z,98706.98
2019-05-11T20:35:13.617Z,98710.08
2019-05-11T20:37:47.610Z,98713.30
2019-05-11T20:40:21.883Z,98712.25
2019-05-11T20:42:55.530Z,98723.07
2019-05-11T20:45:29.366Z,98725.97
2019-05-11T20:48:03.104Z,98721.13
2019-05-11T20:50:37.844Z,98725.64
2019-05-11T20:53:11.860Z,98729.53
2019-05-11T20:55:47.802Z,98734.36
2019-05-11T20:58:21.920Z,98731.02
2019-05-11T21:00:56.031Z,98730.21
2019-05-11T21:03:31.200Z,98732.86
2019-05-11T21:06:08.045Z,98735.95
2019-05-11T21:08:41.640Z,98734.11
2019-05-11T21:11:17.900Z,98734.34
2019-05-11T21:13:50.408Z,98740.11
2019-05-11T21:16:24.063Z,98736.45
2019-05-11T21:18:57.956Z,98737.60
2019-05-11T21:21:45.181Z,98739.79
2019-05-11T21:24:08.385Z,98740.84
2019-05-11T21:26:41.560Z,98741.88
2019-05-11T21:29:15.136Z,98742.69
2019-05-11T21:31:49.983Z,98744.52
2019-05-11T21:34:23.754Z,98745.92
2019-05-11T21:36:58.854Z,98755.22
2019-05-11T21:39:34.314Z,98752.12
2019-05-11T21:42:08.008Z,98749.91
2019-05-11T21:44:43.866Z,98750.38
2019-05-11T21:47:18.323Z,98747.62
2019-05-11T21:49:53.858Z,98743.38
2019-05-11T21:52:28.735Z,98755.34
2019-05-11T21:55:02.591Z,98748.91
2019-05-11T21:57:36.639Z,98748.89
2019-05-11T22:00:12.102Z,98748.19
2019-05-11T22:02:48.597Z,98750.47
2019-05-11T22:05:22.041Z,98754.61
2019-05-11T22:07:58.108Z,98747.45
2019-05-11T22:10:31.026Z,98758.39
2019-05-11T22:13:05.028Z,98753.88
2019-05-11T22:15:40.158Z,98752.73
2019-05-11T22:18:28.232Z,98756.73
2019-05-11T22:20:49.179Z,98752.47
2019-05-11T22:23:22.956Z,98752.80
2019-05-11T22:25:58.724Z,98760.64
2019-05-11T22:28:38.824Z,98761.42
2019-05-11T22:31:29.227Z,98757.70
2019-05-11T22:34:02.708Z,98762.05
2019-05-11T22:36:38.086Z,98756.95
2019-05-11T22:39:11.639Z,98762.38
2019-05-11T22:41:45.124Z,98762.11
2019-05-11T22:44:19.640Z,98763.84
2019-05-11T22:46:53.572Z,98758.72
2019-05-11T22:49:28.819Z,98760.03
2019-05-11T22:52:03.754Z,98757.72
2019-05-11T22:54:40.123Z,98757.21
2019-05-11T22:57:13.761Z,98757.02
2019-05-11T22:59:47.526Z,98758.63
2019-05-11T23:02:21.139Z,98761.59
2019-05-11T23:04:55.032Z,98766.98
2019-05-11T23:07:28.842Z,98761.19
2019-05-11T23:10:03.741Z,98765.53
2019-05-11T23:12:38.277Z,98767.06
2019-05-11T23:15:12.613Z,98763.41
2019-05-11T23:17:50.084Z,98766.31
2019-05-11T23:20:25.281Z,98776.47
2019-05-11T23:23:01.476Z,98772.64
2019-05-11T23:25:35.618Z,98777.02
2019-05-11T23:28:09.296Z,98776.01
2019-05-11T23:30:42.864Z,98778.84
2019-05-11T23:33:18.291Z,98776.56
2019-05-11T23:35:51.435Z,98777.89
2019-05-11T23:38:28.067Z,98772.95
2019-05-11T23:41:00.751Z,98772.95
2019-05-11T23:43:34.276Z,98775.17
2019-05-11T23:46:09.179Z,98774.73
2019-05-11T23:48:45.745Z,98774.68
2019-05-11T23:51:18.803Z,98769.83
2019-05-11T23:53:52.576Z,98764.03
2019-05-11T23:56:28.213Z,98769.05
2019-05-11T23:59:03.420Z,98765.36
